Garwin, IA (50632)

8:56 AM CST on December 26, 2014 (GMT -0600)
Anderson Farms | Change Station
CLOSE
Current Station
Personal Weather Station
Location: Beaman, IA
Elevation: 1043 ft
Nearby Weather Stations

Elev 1043 ft 42.19 °N, 92.82 °W | Updated 22 seconds ago

Clear
Clear
34.4 °F
Feels Like 34 °F
N
2.0
Wind Variable Wind from West
Gusts 4.0 mph

Today
High -- | Low -- °F
--% Chance of Precip.
Yesterday
High -- | Low -- °F
Precip. -- in
7:37 AM 4:45 PM
Waxing Crescent, 26% visible
Pressure 29.92 in
Visibility 10.0 miles
Clouds Clear
Windchill 34 °F
Dew Point 31 °F
Humidity 89%
Rainfall 0.00 in
Snow Depth Not available.
UV 1 out of 12
Pollen .10 out of 12
Air Quality Not available.
Flu Activity Not available.
METAR KMIW 261453Z AUTO 25004KT 10SM CLR 01/M02 A2990 RMK AO2 SLP132 T00061017 51019

More Conditions Fewer Conditions

Pressure 29.92 in
Visibility 10.0 miles
Clouds Clear
Windchill 34 °F
Dew Point 31 °F
Humidity 89%
Rainfall 0.00 in
Snow Depth Not available.
UV 1 out of 12
Pollen .10 out of 12
Air Quality Not available.
Flu Activity Not available.
METAR KMIW 261453Z AUTO 25004KT 10SM CLR 01/M02 A2990 RMK AO2 SLP132 T00061017 51019

More Conditions Fewer Conditions

10-Day Weather Forecast

Almanac

Astronomy

Dec. 26, 2014 Rise Set
Actual Time
Civil Twilight
Nautical Twilight
Astronomical Twilight
Moon
Length of Visible Light
Length of Day
Tomorrow will be .
, % of the Moon is Illuminated

Today's Extremes

State Highs State Lows

Community

WunderPhotos

Upload Photos

1,780,599 photos uploaded!

WunderBlogs® & News

Nearby

Air Quality

  Air Quality AQ Index Pollutant
Not available.

Snow Depth

Station Depth Elevation

Earthquake Activity

City Distance Mag. Time & Date
Minimum magnitude displayed is 2.5.

Coastal Water Temperatures

Place Temperature

Nearby Weather Stations